sensor_id;sensor_type;location;lat;lon;timestamp;P1;durP1;ratioP1;P2;durP2;ratioP2
15363;SDS011;7781;49.690;6.472;2022-11-11T00:00:04;17.70;;;6.60;;
15363;SDS011;7781;49.690;6.472;2022-11-11T00:02:53;17.33;;;7.67;;
15363;SDS011;7781;49.690;6.472;2022-11-11T00:37:19;19.83;;;9.57;;
15363;SDS011;7781;49.690;6.472;2022-11-11T00:41:16;22.93;;;8.87;;
15363;SDS011;7781;49.690;6.472;2022-11-11T00:45:35;19.57;;;8.63;;
15363;SDS011;7781;49.690;6.472;2022-11-11T05:39:43;8.53;;;4.53;;
15363;SDS011;7781;49.690;6.472;2022-11-11T05:49:15;8.57;;;4.13;;
15363;SDS011;7781;49.690;6.472;2022-11-11T06:16:33;13.47;;;6.10;;
15363;SDS011;7781;49.690;6.472;2022-11-11T06:20:51;16.90;;;7.13;;
15363;SDS011;7781;49.690;6.472;2022-11-11T08:04:55;9.20;;;5.73;;
15363;SDS011;7781;49.690;6.472;2022-11-11T08:07:42;8.33;;;5.10;;
15363;SDS011;7781;49.690;6.472;2022-11-11T08:10:30;8.60;;;4.70;;
15363;SDS011;7781;49.690;6.472;2022-11-11T08:13:17;9.07;;;5.20;;
15363;SDS011;7781;49.690;6.472;2022-11-11T08:16:22;8.57;;;4.90;;
15363;SDS011;7781;49.690;6.472;2022-11-11T08:19:10;10.47;;;4.77;;
15363;SDS011;7781;49.690;6.472;2022-11-11T08:21:58;8.17;;;5.17;;
15363;SDS011;7781;49.690;6.472;2022-11-11T08:24:46;6.07;;;3.30;;
15363;SDS011;7781;49.690;6.472;2022-11-11T08:27:48;5.20;;;4.10;;
15363;SDS011;7781;49.690;6.472;2022-11-11T08:30:35;4.37;;;3.00;;
15363;SDS011;7781;49.690;6.472;2022-11-11T08:33:23;5.73;;;2.80;;
15363;SDS011;7781;49.690;6.472;2022-11-11T08:36:18;3.97;;;3.00;;
15363;SDS011;7781;49.690;6.472;2022-11-11T08:39:09;3.20;;;2.73;;
15363;SDS011;7781;49.690;6.472;2022-11-11T08:41:56;4.97;;;3.30;;
15363;SDS011;7781;49.690;6.472;2022-11-11T08:44:43;4.40;;;2.60;;
15363;SDS011;7781;49.690;6.472;2022-11-11T08:47:31;7.83;;;3.60;;
15363;SDS011;7781;49.690;6.472;2022-11-11T08:50:18;3.27;;;2.50;;
15363;SDS011;7781;49.690;6.472;2022-11-11T08:53:08;2.83;;;2.50;;
15363;SDS011;7781;49.690;6.472;2022-11-11T08:55:57;5.00;;;3.63;;
15363;SDS011;7781;49.690;6.472;2022-11-11T08:58:49;4.47;;;3.20;;
15363;SDS011;7781;49.690;6.472;2022-11-11T09:01:36;5.60;;;3.40;;
15363;SDS011;7781;49.690;6.472;2022-11-11T09:04:24;4.70;;;3.50;;
15363;SDS011;7781;49.690;6.472;2022-11-11T09:07:30;5.47;;;2.93;;
15363;SDS011;7781;49.690;6.472;2022-11-11T09:10:17;10.17;;;6.73;;
15363;SDS011;7781;49.690;6.472;2022-11-11T09:13:06;6.20;;;3.50;;
15363;SDS011;7781;49.690;6.472;2022-11-11T09:15:55;5.60;;;3.27;;
15363;SDS011;7781;49.690;6.472;2022-11-11T09:18:44;6.00;;;3.67;;
15363;SDS011;7781;49.690;6.472;2022-11-11T09:21:33;5.27;;;3.63;;
15363;SDS011;7781;49.690;6.472;2022-11-11T09:24:23;7.03;;;2.97;;
15363;SDS011;7781;49.690;6.472;2022-11-11T09:27:10;4.50;;;3.20;;
15363;SDS011;7781;49.690;6.472;2022-11-11T09:30:01;5.23;;;3.33;;
15363;SDS011;7781;49.690;6.472;2022-11-11T09:32:49;6.20;;;3.33;;
15363;SDS011;7781;49.690;6.472;2022-11-11T09:35:37;6.63;;;3.63;;
15363;SDS011;7781;49.690;6.472;2022-11-11T09:38:24;6.63;;;3.57;;
15363;SDS011;7781;49.690;6.472;2022-11-11T09:41:14;6.30;;;4.50;;
15363;SDS011;7781;49.690;6.472;2022-11-11T09:44:08;13.73;;;5.30;;
15363;SDS011;7781;49.690;6.472;2022-11-11T09:47:12;6.53;;;5.00;;
15363;SDS011;7781;49.690;6.472;2022-11-11T09:50:04;7.47;;;4.90;;
15363;SDS011;7781;49.690;6.472;2022-11-11T09:52:56;7.30;;;4.47;;
15363;SDS011;7781;49.690;6.472;2022-11-11T09:55:48;5.77;;;4.23;;
15363;SDS011;7781;49.690;6.472;2022-11-11T09:58:42;10.50;;;4.80;;
15363;SDS011;7781;49.690;6.472;2022-11-11T10:01:35;7.20;;;4.20;;
15363;SDS011;7781;49.690;6.472;2022-11-11T10:04:30;7.60;;;4.47;;
15363;SDS011;7781;49.690;6.472;2022-11-11T10:07:32;11.07;;;4.17;;
15363;SDS011;7781;49.690;6.472;2022-11-11T10:10:24;7.50;;;4.60;;
15363;SDS011;7781;49.690;6.472;2022-11-11T10:13:19;10.70;;;5.47;;
15363;SDS011;7781;49.690;6.472;2022-11-11T10:16:13;8.60;;;5.20;;
15363;SDS011;7781;49.690;6.472;2022-11-11T10:19:13;7.13;;;5.03;;
15363;SDS011;7781;49.690;6.472;2022-11-11T10:22:12;9.80;;;6.77;;
15363;SDS011;7781;49.690;6.472;2022-11-11T10:25:07;8.40;;;5.30;;
15363;SDS011;7781;49.690;6.472;2022-11-11T10:28:07;11.03;;;6.53;;
15363;SDS011;7781;49.690;6.472;2022-11-11T10:30:59;10.03;;;5.97;;
15363;SDS011;7781;49.690;6.472;2022-11-11T10:33:50;11.40;;;6.67;;
15363;SDS011;7781;49.690;6.472;2022-11-11T10:36:43;10.90;;;6.53;;
15363;SDS011;7781;49.690;6.472;2022-11-11T10:39:43;11.10;;;6.30;;
15363;SDS011;7781;49.690;6.472;2022-11-11T10:42:44;10.73;;;6.40;;
15363;SDS011;7781;49.690;6.472;2022-11-11T10:45:35;12.37;;;7.50;;
15363;SDS011;7781;49.690;6.472;2022-11-11T10:48:34;15.37;;;8.10;;
15363;SDS011;7781;49.690;6.472;2022-11-11T10:51:29;15.00;;;7.27;;
15363;SDS011;7781;49.690;6.472;2022-11-11T10:54:20;13.73;;;7.23;;
15363;SDS011;7781;49.690;6.472;2022-11-11T10:57:14;18.93;;;7.77;;
15363;SDS011;7781;49.690;6.472;2022-11-11T11:00:08;12.60;;;7.10;;
15363;SDS011;7781;49.690;6.472;2022-11-11T11:02:58;13.90;;;8.47;;
15363;SDS011;7781;49.690;6.472;2022-11-11T11:05:55;13.37;;;7.70;;
15363;SDS011;7781;49.690;6.472;2022-11-11T12:11:56;10.80;;;6.27;;
15363;SDS011;7781;49.690;6.472;2022-11-11T12:25:32;14.53;;;7.30;;
15363;SDS011;7781;49.690;6.472;2022-11-11T14:16:56;13.10;;;8.57;;
15363;SDS011;7781;49.690;6.472;2022-11-11T16:33:32;12.73;;;7.80;;
15363;SDS011;7781;49.690;6.472;2022-11-11T16:40:24;13.90;;;8.00;;
15363;SDS011;7781;49.690;6.472;2022-11-11T16:43:21;14.07;;;8.60;;
15363;SDS011;7781;49.690;6.472;2022-11-11T16:46:33;16.47;;;10.50;;
15363;SDS011;7781;49.690;6.472;2022-11-11T16:49:27;14.93;;;8.97;;
15363;SDS011;7781;49.690;6.472;2022-11-11T17:00:11;19.40;;;10.70;;
15363;SDS011;7781;49.690;6.472;2022-11-11T17:03:10;18.97;;;10.53;;
15363;SDS011;7781;49.690;6.472;2022-11-11T17:06:00;24.00;;;11.50;;
15363;SDS011;7781;49.690;6.472;2022-11-11T17:12:19;21.17;;;11.50;;
15363;SDS011;7781;49.690;6.472;2022-11-11T17:15:17;17.63;;;10.67;;
15363;SDS011;7781;49.690;6.472;2022-11-11T17:18:07;18.23;;;9.50;;
15363;SDS011;7781;49.690;6.472;2022-11-11T17:20:55;17.87;;;9.57;;
15363;SDS011;7781;49.690;6.472;2022-11-11T17:23:43;19.77;;;10.37;;
15363;SDS011;7781;49.690;6.472;2022-11-11T17:26:30;19.67;;;10.90;;
15363;SDS011;7781;49.690;6.472;2022-11-11T17:38:27;19.30;;;10.30;;
15363;SDS011;7781;49.690;6.472;2022-11-11T17:45:49;18.33;;;9.20;;
15363;SDS011;7781;49.690;6.472;2022-11-11T17:48:39;17.97;;;9.50;;
15363;SDS011;7781;49.690;6.472;2022-11-11T17:51:27;17.70;;;9.03;;
15363;SDS011;7781;49.690;6.472;2022-11-11T17:54:16;17.13;;;9.70;;
15363;SDS011;7781;49.690;6.472;2022-11-11T17:57:04;23.47;;;11.63;;
15363;SDS011;7781;49.690;6.472;2022-11-11T17:59:51;30.60;;;16.67;;
15363;SDS011;7781;49.690;6.472;2022-11-11T18:02:38;23.50;;;12.70;;
15363;SDS011;7781;49.690;6.472;2022-11-11T18:05:25;18.93;;;11.07;;
15363;SDS011;7781;49.690;6.472;2022-11-11T18:08:13;22.50;;;11.03;;
15363;SDS011;7781;49.690;6.472;2022-11-11T18:11:03;20.97;;;9.93;;
15363;SDS011;7781;49.690;6.472;2022-11-11T18:13:52;17.40;;;9.07;;
15363;SDS011;7781;49.690;6.472;2022-11-11T18:16:40;16.87;;;8.33;;
15363;SDS011;7781;49.690;6.472;2022-11-11T18:19:27;17.70;;;8.70;;
15363;SDS011;7781;49.690;6.472;2022-11-11T18:22:14;14.30;;;7.60;;
15363;SDS011;7781;49.690;6.472;2022-11-11T18:25:02;14.87;;;7.20;;
15363;SDS011;7781;49.690;6.472;2022-11-11T18:27:53;15.53;;;7.37;;
15363;SDS011;7781;49.690;6.472;2022-11-11T18:30:40;14.83;;;8.37;;
15363;SDS011;7781;49.690;6.472;2022-11-11T18:33:27;18.40;;;9.40;;
15363;SDS011;7781;49.690;6.472;2022-11-11T18:36:15;22.53;;;9.20;;
15363;SDS011;7781;49.690;6.472;2022-11-11T18:39:04;19.87;;;9.23;;
15363;SDS011;7781;49.690;6.472;2022-11-11T18:41:56;38.33;;;8.27;;
15363;SDS011;7781;49.690;6.472;2022-11-11T18:44:45;24.03;;;9.23;;
15363;SDS011;7781;49.690;6.472;2022-11-11T18:47:33;18.93;;;8.60;;
15363;SDS011;7781;49.690;6.472;2022-11-11T18:50:34;20.40;;;8.10;;
15363;SDS011;7781;49.690;6.472;2022-11-11T18:53:24;17.13;;;8.40;;
15363;SDS011;7781;49.690;6.472;2022-11-11T18:56:15;17.30;;;8.20;;
15363;SDS011;7781;49.690;6.472;2022-11-11T18:59:04;23.23;;;9.20;;
15363;SDS011;7781;49.690;6.472;2022-11-11T19:01:53;14.67;;;7.70;;
15363;SDS011;7781;49.690;6.472;2022-11-11T19:04:41;19.07;;;10.70;;
15363;SDS011;7781;49.690;6.472;2022-11-11T19:07:28;24.57;;;10.70;;
15363;SDS011;7781;49.690;6.472;2022-11-11T19:10:15;22.87;;;10.57;;
15363;SDS011;7781;49.690;6.472;2022-11-11T19:13:02;23.73;;;10.27;;
15363;SDS011;7781;49.690;6.472;2022-11-11T19:15:50;22.93;;;9.80;;
15363;SDS011;7781;49.690;6.472;2022-11-11T19:18:41;22.73;;;9.47;;
15363;SDS011;7781;49.690;6.472;2022-11-11T19:21:30;23.30;;;10.90;;
15363;SDS011;7781;49.690;6.472;2022-11-11T19:24:19;18.77;;;9.63;;
15363;SDS011;7781;49.690;6.472;2022-11-11T19:27:07;21.60;;;10.00;;
15363;SDS011;7781;49.690;6.472;2022-11-11T19:29:54;23.17;;;9.17;;
15363;SDS011;7781;49.690;6.472;2022-11-11T19:32:41;18.20;;;8.73;;
15363;SDS011;7781;49.690;6.472;2022-11-11T19:35:31;27.87;;;9.23;;
15363;SDS011;7781;49.690;6.472;2022-11-11T19:38:19;21.17;;;9.37;;
15363;SDS011;7781;49.690;6.472;2022-11-11T19:41:07;23.93;;;10.20;;
15363;SDS011;7781;49.690;6.472;2022-11-11T19:43:55;17.67;;;7.83;;
15363;SDS011;7781;49.690;6.472;2022-11-11T19:46:43;21.97;;;8.90;;
15363;SDS011;7781;49.690;6.472;2022-11-11T19:49:30;18.67;;;8.77;;
15363;SDS011;7781;49.690;6.472;2022-11-11T19:52:21;18.30;;;9.73;;
15363;SDS011;7781;49.690;6.472;2022-11-11T19:55:08;16.77;;;8.90;;
15363;SDS011;7781;49.690;6.472;2022-11-11T19:57:57;21.77;;;8.20;;
15363;SDS011;7781;49.690;6.472;2022-11-11T20:00:44;16.33;;;8.20;;
15363;SDS011;7781;49.690;6.472;2022-11-11T20:03:33;13.03;;;7.33;;
15363;SDS011;7781;49.690;6.472;2022-11-11T20:06:22;16.47;;;8.37;;
15363;SDS011;7781;49.690;6.472;2022-11-11T20:09:12;18.17;;;8.00;;
15363;SDS011;7781;49.690;6.472;2022-11-11T20:11:59;16.00;;;7.17;;
15363;SDS011;7781;49.690;6.472;2022-11-11T20:14:47;13.20;;;7.37;;
15363;SDS011;7781;49.690;6.472;2022-11-11T20:17:34;14.60;;;7.70;;
15363;SDS011;7781;49.690;6.472;2022-11-11T20:20:24;14.97;;;7.67;;
15363;SDS011;7781;49.690;6.472;2022-11-11T20:23:11;14.23;;;7.50;;
15363;SDS011;7781;49.690;6.472;2022-11-11T20:26:03;19.47;;;9.50;;
15363;SDS011;7781;49.690;6.472;2022-11-11T20:28:53;19.03;;;8.87;;
15363;SDS011;7781;49.690;6.472;2022-11-11T20:31:41;20.17;;;8.87;;
15363;SDS011;7781;49.690;6.472;2022-11-11T20:34:30;23.87;;;11.10;;
15363;SDS011;7781;49.690;6.472;2022-11-11T20:37:18;31.67;;;11.80;;
15363;SDS011;7781;49.690;6.472;2022-11-11T20:40:05;25.47;;;11.83;;
15363;SDS011;7781;49.690;6.472;2022-11-11T20:42:59;28.63;;;14.00;;
15363;SDS011;7781;49.690;6.472;2022-11-11T20:45:47;28.27;;;11.90;;
15363;SDS011;7781;49.690;6.472;2022-11-11T20:48:34;25.47;;;12.57;;
15363;SDS011;7781;49.690;6.472;2022-11-11T20:51:25;28.63;;;9.97;;
15363;SDS011;7781;49.690;6.472;2022-11-11T20:54:14;32.80;;;16.67;;
15363;SDS011;7781;49.690;6.472;2022-11-11T20:57:01;21.03;;;9.57;;
15363;SDS011;7781;49.690;6.472;2022-11-11T20:59:50;13.23;;;7.20;;
15363;SDS011;7781;49.690;6.472;2022-11-11T21:02:37;46.87;;;8.50;;
15363;SDS011;7781;49.690;6.472;2022-11-11T21:05:25;17.90;;;7.70;;
15363;SDS011;7781;49.690;6.472;2022-11-11T21:08:12;20.17;;;8.13;;
15363;SDS011;7781;49.690;6.472;2022-11-11T21:11:00;30.73;;;8.37;;
15363;SDS011;7781;49.690;6.472;2022-11-11T21:13:51;20.73;;;8.10;;
15363;SDS011;7781;49.690;6.472;2022-11-11T21:16:41;17.93;;;7.67;;
15363;SDS011;7781;49.690;6.472;2022-11-11T21:19:28;24.10;;;7.87;;
15363;SDS011;7781;49.690;6.472;2022-11-11T21:22:15;25.67;;;7.60;;
15363;SDS011;7781;49.690;6.472;2022-11-11T21:25:02;14.50;;;7.70;;
15363;SDS011;7781;49.690;6.472;2022-11-11T21:27:50;15.20;;;7.60;;
15363;SDS011;7781;49.690;6.472;2022-11-11T21:30:38;17.60;;;7.90;;
15363;SDS011;7781;49.690;6.472;2022-11-11T21:33:26;22.73;;;8.00;;
15363;SDS011;7781;49.690;6.472;2022-11-11T21:36:14;16.27;;;8.67;;
15363;SDS011;7781;49.690;6.472;2022-11-11T21:39:03;21.33;;;8.03;;
15363;SDS011;7781;49.690;6.472;2022-11-11T21:41:52;16.50;;;8.10;;
15363;SDS011;7781;49.690;6.472;2022-11-11T21:44:41;24.70;;;8.67;;
15363;SDS011;7781;49.690;6.472;2022-11-11T21:47:28;16.40;;;8.37;;
15363;SDS011;7781;49.690;6.472;2022-11-11T21:50:17;19.50;;;8.97;;
15363;SDS011;7781;49.690;6.472;2022-11-11T21:53:04;17.57;;;8.80;;
15363;SDS011;7781;49.690;6.472;2022-11-11T21:55:52;18.20;;;9.30;;
15363;SDS011;7781;49.690;6.472;2022-11-11T21:58:44;15.27;;;8.97;;
15363;SDS011;7781;49.690;6.472;2022-11-11T22:01:36;15.90;;;8.30;;
15363;SDS011;7781;49.690;6.472;2022-11-11T22:04:25;21.23;;;9.17;;
15363;SDS011;7781;49.690;6.472;2022-11-11T22:07:14;17.13;;;8.07;;
15363;SDS011;7781;49.690;6.472;2022-11-11T22:10:03;20.60;;;9.10;;
15363;SDS011;7781;49.690;6.472;2022-11-11T22:12:51;19.07;;;9.50;;
15363;SDS011;7781;49.690;6.472;2022-11-11T22:15:40;17.77;;;8.83;;
15363;SDS011;7781;49.690;6.472;2022-11-11T22:18:28;20.30;;;9.13;;
15363;SDS011;7781;49.690;6.472;2022-11-11T22:21:18;19.60;;;9.87;;
15363;SDS011;7781;49.690;6.472;2022-11-11T22:24:09;16.83;;;9.17;;
15363;SDS011;7781;49.690;6.472;2022-11-11T22:26:57;16.57;;;8.57;;
15363;SDS011;7781;49.690;6.472;2022-11-11T22:29:44;19.57;;;9.13;;
15363;SDS011;7781;49.690;6.472;2022-11-11T22:32:34;27.50;;;10.40;;
15363;SDS011;7781;49.690;6.472;2022-11-11T22:35:22;16.97;;;9.27;;
15363;SDS011;7781;49.690;6.472;2022-11-11T22:38:11;17.23;;;9.33;;
15363;SDS011;7781;49.690;6.472;2022-11-11T22:41:01;20.77;;;10.50;;
15363;SDS011;7781;49.690;6.472;2022-11-11T22:43:51;28.10;;;12.10;;
15363;SDS011;7781;49.690;6.472;2022-11-11T22:46:46;25.13;;;11.40;;
15363;SDS011;7781;49.690;6.472;2022-11-11T22:49:36;32.50;;;13.20;;
15363;SDS011;7781;49.690;6.472;2022-11-11T22:52:26;19.03;;;10.20;;
15363;SDS011;7781;49.690;6.472;2022-11-11T22:55:14;22.23;;;11.30;;
15363;SDS011;7781;49.690;6.472;2022-11-11T22:58:04;20.83;;;10.70;;
15363;SDS011;7781;49.690;6.472;2022-11-11T23:00:52;24.17;;;9.73;;
15363;SDS011;7781;49.690;6.472;2022-11-11T23:03:40;15.67;;;7.33;;
15363;SDS011;7781;49.690;6.472;2022-11-11T23:06:31;21.97;;;9.47;;
15363;SDS011;7781;49.690;6.472;2022-11-11T23:09:20;18.00;;;8.73;;
15363;SDS011;7781;49.690;6.472;2022-11-11T23:12:07;13.83;;;7.70;;
15363;SDS011;7781;49.690;6.472;2022-11-11T23:14:57;15.80;;;7.03;;
15363;SDS011;7781;49.690;6.472;2022-11-11T23:17:44;13.00;;;7.27;;
15363;SDS011;7781;49.690;6.472;2022-11-11T23:20:33;25.37;;;7.23;;
15363;SDS011;7781;49.690;6.472;2022-11-11T23:23:20;16.23;;;8.07;;
15363;SDS011;7781;49.690;6.472;2022-11-11T23:26:08;20.73;;;10.03;;
15363;SDS011;7781;49.690;6.472;2022-11-11T23:28:57;15.97;;;7.87;;
15363;SDS011;7781;49.690;6.472;2022-11-11T23:31:46;26.07;;;7.53;;
15363;SDS011;7781;49.690;6.472;2022-11-11T23:34:33;17.00;;;8.97;;
15363;SDS011;7781;49.690;6.472;2022-11-11T23:37:20;18.67;;;9.90;;
15363;SDS011;7781;49.690;6.472;2022-11-11T23:40:07;15.90;;;8.20;;
15363;SDS011;7781;49.690;6.472;2022-11-11T23:42:57;19.50;;;9.40;;
15363;SDS011;7781;49.690;6.472;2022-11-11T23:45:45;14.57;;;7.30;;
15363;SDS011;7781;49.690;6.472;2022-11-11T23:48:42;18.13;;;8.90;;
15363;SDS011;7781;49.690;6.472;2022-11-11T23:51:29;16.20;;;8.53;;
15363;SDS011;7781;49.690;6.472;2022-11-11T23:54:17;21.50;;;10.40;;
15363;SDS011;7781;49.690;6.472;2022-11-11T23:57:04;22.13;;;9.50;;
15363;SDS011;7781;49.690;6.472;2022-11-11T23:59:51;15.03;;;8.57;;
